createdAt,value
2023-01-03T00:02:08.878Z,65.71
2023-01-03T00:04:37.492Z,66.23
2023-01-03T00:07:05.957Z,65.71
2023-01-03T00:09:34.325Z,65.67
2023-01-03T00:12:25.554Z,65.64
2023-01-03T00:14:57.128Z,65.63
2023-01-03T00:17:25.913Z,65.38
2023-01-03T00:19:54.333Z,65.46
2023-01-03T00:22:23.850Z,65.81
2023-01-03T00:24:54.432Z,65.90
2023-01-03T00:27:24.148Z,65.86
2023-01-03T00:29:52.526Z,65.60
2023-01-03T00:32:21.092Z,65.93
2023-01-03T00:34:49.870Z,65.94
2023-01-03T00:37:18.408Z,65.93
2023-01-03T00:39:46.821Z,66.35
2023-01-03T00:42:15.259Z,66.43
2023-01-03T00:44:44.983Z,66.29
2023-01-03T00:47:13.289Z,66.77
2023-01-03T00:49:41.646Z,66.33
2023-01-03T00:52:10.047Z,66.75
2023-01-03T00:54:38.847Z,66.66
2023-01-03T00:57:07.160Z,66.53
2023-01-03T00:59:35.507Z,66.96
2023-01-03T01:02:05.350Z,66.93
2023-01-03T01:04:34.017Z,66.73
2023-01-03T01:07:05.138Z,67.22
2023-01-03T01:09:36.744Z,67.27
2023-01-03T01:12:07.119Z,67.11
2023-01-03T01:14:35.793Z,67.02
2023-01-03T01:17:08.775Z,67.24
2023-01-03T01:19:40.102Z,67.15
2023-01-03T01:22:09.285Z,67.61
2023-01-03T01:24:38.110Z,67.31
2023-01-03T01:27:06.891Z,67.06
2023-01-03T01:29:35.261Z,67.30
2023-01-03T01:32:05.962Z,67.07
2023-01-03T01:34:34.665Z,66.93
2023-01-03T01:37:03.090Z,66.60
2023-01-03T01:39:32.227Z,67.04
2023-01-03T01:42:24.974Z,66.78
2023-01-03T01:45:00.029Z,66.58
2023-01-03T01:47:46.964Z,66.87
2023-01-03T01:50:23.439Z,67.06
2023-01-03T01:52:58.920Z,67.00
2023-01-03T01:55:36.135Z,66.91
2023-01-03T01:58:06.091Z,67.05
2023-01-03T02:00:35.359Z,66.45
2023-01-03T02:03:06.000Z,66.81
2023-01-03T02:05:38.447Z,66.91
2023-01-03T02:08:07.403Z,66.61
2023-01-03T02:10:59.165Z,66.85
2023-01-03T02:13:39.629Z,66.81
2023-01-03T02:16:56.834Z,67.01
2023-01-03T02:20:03.806Z,66.67
2023-01-03T02:23:22.784Z,67.18
2023-01-03T02:26:24.465Z,67.11
2023-01-03T02:29:22.602Z,66.92
2023-01-03T02:32:02.787Z,67.07
2023-01-03T02:34:44.165Z,67.21
2023-01-03T02:37:23.428Z,67.22
2023-01-03T02:40:05.423Z,66.88
2023-01-03T02:43:02.104Z,67.68
2023-01-03T02:45:48.743Z,67.17
2023-01-03T02:48:28.109Z,67.61
2023-01-03T02:51:01.151Z,67.40
2023-01-03T02:53:34.205Z,68.24
2023-01-03T02:56:08.857Z,67.66
2023-01-03T02:58:40.788Z,68.37
2023-01-03T03:01:11.988Z,68.08
2023-01-03T03:03:42.345Z,68.67
2023-01-03T03:06:19.081Z,68.33
2023-01-03T03:08:48.632Z,69.30
2023-01-03T03:11:34.951Z,69.54
2023-01-03T03:14:10.909Z,69.52
2023-01-03T03:16:50.912Z,69.92
2023-01-03T03:19:44.506Z,70.07
2023-01-03T03:22:51.377Z,70.38
2023-01-03T03:25:26.445Z,70.42
2023-01-03T03:28:19.176Z,70.39
2023-01-03T03:30:52.057Z,70.58
2023-01-03T03:33:22.844Z,70.93
2023-01-03T03:35:58.684Z,71.02
2023-01-03T03:38:33.411Z,71.18
2023-01-03T03:41:31.131Z,71.27
2023-01-03T03:44:22.996Z,71.63
2023-01-03T03:47:04.110Z,72.32
2023-01-03T03:49:40.780Z,72.66
2023-01-03T03:52:15.219Z,72.62
2023-01-03T03:54:51.084Z,72.41
2023-01-03T03:57:27.273Z,73.10
2023-01-03T04:00:01.005Z,72.84
2023-01-03T04:02:32.059Z,72.85
2023-01-03T04:05:06.421Z,73.88
2023-01-03T04:07:36.665Z,73.33
2023-01-03T04:10:06.965Z,73.30
2023-01-03T04:12:35.351Z,73.39
2023-01-03T04:15:03.988Z,73.54
2023-01-03T04:17:32.434Z,73.62
2023-01-03T04:20:00.791Z,73.29
2023-01-03T04:22:29.136Z,73.66
2023-01-03T04:24:58.924Z,72.90
2023-01-03T04:27:27.332Z,73.37
2023-01-03T04:29:55.659Z,73.51
2023-01-03T04:32:24.064Z,73.59
2023-01-03T04:34:52.449Z,72.84
2023-01-03T04:37:20.998Z,72.31
2023-01-03T04:39:49.355Z,72.02
2023-01-03T04:42:36.568Z,72.33
2023-01-03T04:45:05.760Z,71.80
2023-01-03T04:47:34.175Z,70.79
2023-01-03T04:50:02.517Z,70.62
2023-01-03T04:52:31.127Z,70.97
2023-01-03T04:54:59.483Z,70.49
2023-01-03T04:57:29.198Z,71.14
2023-01-03T04:59:57.539Z,70.09
2023-01-03T05:02:25.890Z,70.11
2023-01-03T05:04:54.277Z,69.71
2023-01-03T05:07:22.594Z,69.44
2023-01-03T05:09:50.954Z,69.31
2023-01-03T05:12:19.376Z,69.77
2023-01-03T05:14:49.098Z,68.49
2023-01-03T05:17:18.934Z,69.39
2023-01-03T05:20:01.375Z,68.44
2023-01-03T05:22:47.095Z,68.47
2023-01-03T05:25:41.397Z,68.01
2023-01-03T05:28:13.786Z,68.33
2023-01-03T05:30:46.974Z,68.64
2023-01-03T05:33:15.499Z,68.94
2023-01-03T05:35:48.339Z,69.45
2023-01-03T05:38:16.723Z,70.30
2023-01-03T05:40:45.643Z,70.36
2023-01-03T05:43:15.264Z,70.34
2023-01-03T05:45:43.822Z,69.82
2023-01-03T05:48:14.125Z,70.48
2023-01-03T05:50:42.485Z,70.35
2023-01-03T05:53:10.872Z,70.17
2023-01-03T05:55:40.305Z,71.16
2023-01-03T05:58:09.216Z,70.92
2023-01-03T06:00:37.696Z,71.22
2023-01-03T06:03:06.105Z,70.32
2023-01-03T06:05:36.080Z,71.22
2023-01-03T06:08:04.400Z,71.00
2023-01-03T06:10:32.747Z,71.56
2023-01-03T06:13:01.291Z,70.77
2023-01-03T06:15:29.627Z,71.09
2023-01-03T06:18:02.585Z,70.97
2023-01-03T06:20:32.325Z,71.14
2023-01-03T06:23:02.088Z,71.75
2023-01-03T06:25:30.395Z,71.27
2023-01-03T06:27:58.768Z,71.54
2023-01-03T06:30:27.168Z,72.09
2023-01-03T06:32:55.555Z,72.40
2023-01-03T06:35:23.971Z,73.27
2023-01-03T06:37:52.263Z,72.50
2023-01-03T06:40:22.008Z,72.81
2023-01-03T06:42:50.408Z,72.07
2023-01-03T06:45:36.525Z,72.07
2023-01-03T06:48:23.979Z,72.60
2023-01-03T06:51:18.307Z,72.28
2023-01-03T06:53:46.718Z,71.99
2023-01-03T06:56:16.584Z,71.56
2023-01-03T06:58:44.935Z,71.66
2023-01-03T07:01:15.767Z,71.71
2023-01-03T07:03:44.184Z,72.11
2023-01-03T07:06:12.527Z,71.41
2023-01-03T07:08:47.669Z,71.50
2023-01-03T07:11:18.179Z,71.14
2023-01-03T07:14:00.652Z,71.17
2023-01-03T07:16:32.785Z,70.94
2023-01-03T07:19:01.342Z,71.12
2023-01-03T07:21:32.303Z,70.95
2023-01-03T07:24:02.824Z,70.23
2023-01-03T07:26:35.257Z,71.09
2023-01-03T07:29:06.571Z,70.31
2023-01-03T07:31:35.506Z,71.07
2023-01-03T07:34:03.983Z,71.07
2023-01-03T07:36:32.629Z,70.87
2023-01-03T07:39:01.151Z,70.97
2023-01-03T07:41:43.382Z,71.07
2023-01-03T07:44:13.325Z,71.54
2023-01-03T07:46:41.822Z,71.21
2023-01-03T07:49:12.169Z,71.85
2023-01-03T07:51:41.194Z,71.97
2023-01-03T07:54:09.651Z,70.96
2023-01-03T07:56:38.100Z,71.54
2023-01-03T07:59:06.605Z,71.83
2023-01-03T08:01:36.466Z,71.95
2023-01-03T08:04:04.955Z,71.51
2023-01-03T08:06:35.026Z,71.92
2023-01-03T08:09:21.085Z,71.24
2023-01-03T08:12:07.175Z,71.60
2023-01-03T08:14:38.596Z,71.94
2023-01-03T08:17:08.468Z,71.57
2023-01-03T08:19:43.508Z,71.69
2023-01-03T08:22:14.084Z,71.41
2023-01-03T08:24:42.519Z,70.56
2023-01-03T08:27:10.969Z,70.28
2023-01-03T08:29:39.309Z,70.10
2023-01-03T08:32:09.270Z,71.21
2023-01-03T08:34:41.837Z,70.85
2023-01-03T08:37:12.375Z,70.41
2023-01-03T08:39:49.719Z,69.08
2023-01-03T08:42:23.487Z,69.70
2023-01-03T08:44:57.411Z,69.45
2023-01-03T08:47:27.406Z,68.07
2023-01-03T08:49:56.800Z,69.46
2023-01-03T08:52:28.970Z,67.32
2023-01-03T08:55:00.060Z,67.32
2023-01-03T08:57:28.465Z,66.94
2023-01-03T08:59:56.877Z,67.29
2023-01-03T09:02:26.866Z,67.35
2023-01-03T09:04:55.490Z,68.07
2023-01-03T09:07:23.883Z,68.48
2023-01-03T09:09:52.248Z,68.66
2023-01-03T09:12:20.746Z,68.70
2023-01-03T09:14:49.171Z,68.79
2023-01-03T09:17:17.606Z,68.57
2023-01-03T09:19:47.308Z,68.45
2023-01-03T09:22:15.602Z,66.89
2023-01-03T09:24:44.011Z,67.83
2023-01-03T09:27:12.376Z,60.28
2023-01-03T09:29:41.002Z,53.60
2023-01-03T09:32:10.323Z,45.14
2023-01-03T09:34:38.738Z,43.23
2023-01-03T09:37:08.466Z,42.52
2023-01-03T09:39:36.827Z,41.11
2023-01-03T09:42:20.553Z,39.67
2023-01-03T09:44:49.207Z,40.86
2023-01-03T09:47:23.924Z,38.87
2023-01-03T09:50:26.559Z,36.30
2023-01-03T09:53:03.766Z,31.76
2023-01-03T09:56:02.491Z,28.14
2023-01-03T09:58:49.113Z,25.09
2023-01-03T10:01:51.425Z,22.90
2023-01-03T10:04:50.395Z,21.91
2023-01-03T10:07:42.821Z,22.48
2023-01-03T10:10:23.389Z,24.91
2023-01-03T10:13:07.450Z,27.35
2023-01-03T10:15:47.028Z,28.44
2023-01-03T10:18:37.788Z,26.63
2023-01-03T10:21:12.397Z,25.46
2023-01-03T10:23:41.205Z,23.92
2023-01-03T10:26:13.679Z,23.44
2023-01-03T10:28:45.739Z,24.25
2023-01-03T10:31:31.218Z,25.62
2023-01-03T10:33:59.587Z,28.03
2023-01-03T10:36:27.931Z,29.94
2023-01-03T10:39:08.515Z,32.59
2023-01-03T10:41:45.001Z,34.69
2023-01-03T10:44:26.089Z,34.89
2023-01-03T10:46:57.726Z,34.75
2023-01-03T10:49:30.040Z,34.08
2023-01-03T10:52:02.289Z,34.83
2023-01-03T10:54:46.870Z,35.62
2023-01-03T10:57:43.889Z,36.65
2023-01-03T11:00:29.807Z,38.41
2023-01-03T11:03:12.191Z,39.07
2023-01-03T11:05:43.439Z,39.84
2023-01-03T11:08:22.958Z,42.62
2023-01-03T11:10:59.786Z,38.56
2023-01-03T11:13:39.012Z,35.07
2023-01-03T11:16:16.674Z,31.20
2023-01-03T11:18:59.472Z,26.30
2023-01-03T11:21:35.455Z,22.43
2023-01-03T11:24:15.952Z,20.33
2023-01-03T11:26:52.517Z,18.70
2023-01-03T11:29:49.048Z,18.95
2023-01-03T11:32:38.274Z,20.22
2023-01-03T11:35:33.229Z,20.51
2023-01-03T11:38:20.811Z,19.56
2023-01-03T11:41:02.179Z,20.70
2023-01-03T11:43:49.727Z,21.09
2023-01-03T11:46:45.556Z,23.01
2023-01-03T11:49:28.423Z,24.85
2023-01-03T11:52:20.304Z,26.78
2023-01-03T11:55:32.389Z,29.04
2023-01-03T11:58:18.000Z,31.30
2023-01-03T12:00:56.264Z,33.53
2023-01-03T12:03:42.611Z,35.01
2023-01-03T12:06:28.336Z,36.96
2023-01-03T12:09:17.417Z,38.28
2023-01-03T12:12:25.388Z,39.43
2023-01-03T12:15:00.595Z,40.78
2023-01-03T12:17:48.500Z,41.84
2023-01-03T12:20:24.652Z,42.93
2023-01-03T12:22:59.287Z,43.46
2023-01-03T12:25:33.445Z,44.37
2023-01-03T12:28:13.365Z,44.83
2023-01-03T12:30:47.681Z,45.86
2023-01-03T12:33:31.946Z,46.25
2023-01-03T12:36:16.024Z,46.90
2023-01-03T12:38:55.680Z,47.59
2023-01-03T12:41:35.168Z,48.16
2023-01-03T12:44:13.138Z,48.89
2023-01-03T12:46:49.365Z,48.19
2023-01-03T12:49:25.327Z,49.02
2023-01-03T12:51:55.093Z,50.74
2023-01-03T12:54:39.252Z,50.04
2023-01-03T12:57:42.437Z,51.03
2023-01-03T13:00:35.694Z,51.23
2023-01-03T13:03:16.600Z,52.00
2023-01-03T13:05:50.425Z,51.67
2023-01-03T13:08:31.751Z,52.02
2023-01-03T13:11:04.685Z,53.08
2023-01-03T13:13:34.410Z,52.66
2023-01-03T13:16:39.018Z,52.72
2023-01-03T13:20:03.570Z,52.94
2023-01-03T13:22:53.311Z,52.76
2023-01-03T13:26:10.391Z,52.39
2023-01-03T13:28:40.853Z,51.65
2023-01-03T13:31:45.829Z,51.76
2023-01-03T13:34:35.800Z,52.76
2023-01-03T13:37:18.979Z,52.37
2023-01-03T13:40:17.173Z,53.04
2023-01-03T13:42:46.246Z,52.97
2023-01-03T13:46:03.328Z,54.04
2023-01-03T13:48:40.988Z,54.22
2023-01-03T13:51:50.751Z,54.50
2023-01-03T13:54:59.510Z,54.45
2023-01-03T13:57:57.086Z,54.87
2023-01-03T14:00:25.898Z,54.77
2023-01-03T14:03:40.387Z,54.65
2023-01-03T14:06:53.937Z,54.90
2023-01-03T14:10:01.918Z,55.04
2023-01-03T14:13:29.495Z,55.38
2023-01-03T14:16:20.192Z,55.60
2023-01-03T14:19:02.724Z,55.80
2023-01-03T14:21:46.308Z,55.98
2023-01-03T14:24:25.523Z,56.13
2023-01-03T14:26:55.441Z,56.87
2023-01-03T14:29:27.787Z,56.65
2023-01-03T14:32:00.254Z,56.81
2023-01-03T14:34:42.214Z,57.97
2023-01-03T14:37:15.871Z,57.88
2023-01-03T14:39:54.443Z,58.24
2023-01-03T14:42:23.875Z,58.11
2023-01-03T14:44:57.039Z,59.10
2023-01-03T14:47:35.988Z,59.02
2023-01-03T14:50:09.372Z,58.94
2023-01-03T14:52:41.335Z,59.56
2023-01-03T14:55:15.996Z,59.79
2023-01-03T14:57:46.943Z,59.26
2023-01-03T15:00:24.237Z,59.67
2023-01-03T15:02:59.314Z,60.13
2023-01-03T15:05:32.826Z,60.22
2023-01-03T15:08:21.631Z,60.29
2023-01-03T15:10:54.266Z,60.29
2023-01-03T15:13:26.904Z,60.90
2023-01-03T15:15:57.952Z,61.12
2023-01-03T15:18:29.937Z,61.27
2023-01-03T15:21:01.951Z,61.44
2023-01-03T15:23:40.536Z,61.88
2023-01-03T15:26:22.726Z,61.63
2023-01-03T15:28:55.323Z,61.80
2023-01-03T15:31:34.145Z,62.19
2023-01-03T15:34:13.223Z,62.33
2023-01-03T15:36:47.102Z,62.50
2023-01-03T15:39:20.737Z,62.99
2023-01-03T15:44:56.714Z,62.95
2023-01-03T15:47:30.784Z,63.44
2023-01-03T15:50:03.605Z,63.21
2023-01-03T15:52:33.682Z,62.99
2023-01-03T15:55:03.255Z,63.39
2023-01-03T15:57:32.367Z,63.74
2023-01-03T16:00:04.427Z,63.52
2023-01-03T16:02:33.762Z,63.50
2023-01-03T16:05:02.207Z,64.12
2023-01-03T16:07:32.301Z,64.14
2023-01-03T16:10:01.200Z,64.40
2023-01-03T16:12:34.725Z,64.48
2023-01-03T16:15:04.694Z,64.53
2023-01-03T16:17:33.737Z,64.03
2023-01-03T16:20:03.126Z,64.34
2023-01-03T16:22:35.878Z,64.45
2023-01-03T16:25:06.566Z,64.27
2023-01-03T16:27:35.074Z,63.76
2023-01-03T16:30:03.510Z,64.30
2023-01-03T16:32:32.027Z,64.12
2023-01-03T16:35:04.701Z,64.26
2023-01-03T16:37:34.510Z,63.99
2023-01-03T16:40:02.880Z,64.14
2023-01-03T16:42:31.267Z,64.36
2023-01-03T16:45:00.318Z,64.74
2023-01-03T16:47:33.495Z,64.42
2023-01-03T16:50:05.624Z,65.17
2023-01-03T16:52:40.896Z,65.06
2023-01-03T16:55:17.320Z,65.49
2023-01-03T16:57:50.334Z,66.00
2023-01-03T17:00:24.943Z,66.11
2023-01-03T17:02:55.709Z,66.07
2023-01-03T17:05:24.718Z,65.97
2023-01-03T17:08:02.885Z,66.63
2023-01-03T17:10:36.511Z,66.09
2023-01-03T17:13:12.614Z,66.40
2023-01-03T17:15:42.031Z,66.23
2023-01-03T17:18:18.577Z,66.40
2023-01-03T17:20:49.633Z,66.30
2023-01-03T17:23:19.497Z,66.42
2023-01-03T17:25:47.965Z,65.97
2023-01-03T17:28:16.882Z,66.28
2023-01-03T17:30:45.607Z,66.47
2023-01-03T17:33:16.605Z,66.89
2023-01-03T17:35:47.163Z,66.77
2023-01-03T17:38:26.966Z,67.04
2023-01-03T17:40:57.433Z,67.20
2023-01-03T17:43:27.238Z,67.54
2023-01-03T17:46:22.875Z,67.59
2023-01-03T17:49:09.325Z,67.62
2023-01-03T17:51:37.983Z,68.52
2023-01-03T17:54:07.816Z,68.36
2023-01-03T17:56:38.046Z,68.31
2023-01-03T17:59:06.511Z,68.48
2023-01-03T18:01:35.401Z,68.74
2023-01-03T18:04:03.953Z,68.44
2023-01-03T18:06:32.523Z,68.22
2023-01-03T18:09:06.162Z,68.54
2023-01-03T18:11:36.135Z,68.11
2023-01-03T18:14:04.665Z,68.29
2023-01-03T18:16:33.120Z,68.25
2023-01-03T18:19:01.552Z,68.30
2023-01-03T18:21:29.965Z,68.28
2023-01-03T18:24:02.540Z,68.26
2023-01-03T18:26:38.165Z,68.76
2023-01-03T18:29:08.120Z,68.03
2023-01-03T18:31:36.518Z,68.61
2023-01-03T18:34:05.225Z,68.87
2023-01-03T18:36:39.944Z,68.74
2023-01-03T18:39:15.103Z,68.83
2023-01-03T18:41:46.014Z,68.70
2023-01-03T18:44:21.433Z,68.66
2023-01-03T18:46:50.358Z,68.57
2023-01-03T18:49:20.195Z,69.47
2023-01-03T18:51:53.630Z,68.78
2023-01-03T18:54:22.562Z,68.74
2023-01-03T18:56:52.381Z,68.75
2023-01-03T18:59:23.693Z,68.36
2023-01-03T19:01:52.327Z,68.54
2023-01-03T19:04:21.079Z,68.45
2023-01-03T19:06:52.179Z,68.19
2023-01-03T19:09:24.880Z,67.88
2023-01-03T19:11:55.439Z,68.59
2023-01-03T19:14:24.103Z,68.36
2023-01-03T19:16:52.586Z,67.60
2023-01-03T19:19:21.941Z,67.71
2023-01-03T19:21:50.341Z,67.41
2023-01-03T19:24:25.058Z,67.96
2023-01-03T19:26:58.402Z,67.54
2023-01-03T19:29:36.983Z,67.23
2023-01-03T19:32:12.708Z,67.46
2023-01-03T19:34:41.334Z,67.27
2023-01-03T19:37:11.079Z,67.02
2023-01-03T19:39:39.692Z,67.40
2023-01-03T19:42:33.267Z,67.46
2023-01-03T19:45:03.422Z,66.93
2023-01-03T19:47:31.812Z,66.70
2023-01-03T19:50:11.214Z,66.89
2023-01-03T19:52:39.951Z,66.47
2023-01-03T19:55:10.241Z,66.13
2023-01-03T19:57:41.783Z,66.30
2023-01-03T20:00:21.296Z,66.35
2023-01-03T20:02:52.892Z,66.02
2023-01-03T20:05:23.788Z,67.05
2023-01-03T20:07:52.645Z,67.12
2023-01-03T20:10:24.647Z,67.09
2023-01-03T20:12:58.201Z,66.84
2023-01-03T20:15:29.708Z,67.29
2023-01-03T20:17:58.470Z,67.36
2023-01-03T20:20:31.885Z,67.44
2023-01-03T20:23:06.261Z,67.65
2023-01-03T20:25:37.171Z,67.73
2023-01-03T20:28:07.856Z,66.98
2023-01-03T20:30:38.876Z,67.15
2023-01-03T20:33:07.525Z,67.49
2023-01-03T20:38:27.181Z,67.41
2023-01-03T20:40:56.964Z,67.09
2023-01-03T20:43:27.618Z,66.56
2023-01-03T20:45:59.012Z,67.11
2023-01-03T20:48:27.400Z,66.60
2023-01-03T20:50:56.075Z,66.87
2023-01-03T20:53:27.644Z,67.19
2023-01-03T20:55:56.053Z,66.91
2023-01-03T20:58:27.670Z,66.86
2023-01-03T21:01:04.245Z,66.56
2023-01-03T21:03:35.112Z,66.27
2023-01-03T21:06:05.077Z,66.14
2023-01-03T21:08:50.616Z,66.31
2023-01-03T21:11:18.975Z,66.75
2023-01-03T21:13:48.790Z,66.87
2023-01-03T21:16:41.759Z,66.69
2023-01-03T21:19:16.018Z,66.27
2023-01-03T21:21:46.681Z,66.05
2023-01-03T21:24:18.527Z,66.67
2023-01-03T21:26:47.207Z,66.22
2023-01-03T21:29:16.981Z,66.34
2023-01-03T21:31:46.784Z,66.25
2023-01-03T21:34:20.039Z,65.98
2023-01-03T21:36:48.744Z,65.92
2023-01-03T21:39:17.326Z,66.28
2023-01-03T21:42:05.193Z,66.13
2023-01-03T21:44:34.875Z,65.52
2023-01-03T21:47:03.242Z,65.66
2023-01-03T21:49:32.055Z,65.33
2023-01-03T21:52:00.428Z,64.89
2023-01-03T21:54:28.825Z,65.07
2023-01-03T21:56:57.258Z,65.26
2023-01-03T21:59:25.618Z,65.07
2023-01-03T22:02:13.211Z,64.95
2023-01-03T22:04:41.597Z,64.75
2023-01-03T22:07:09.988Z,64.65
2023-01-03T22:09:55.862Z,64.23
2023-01-03T22:12:24.226Z,64.08
2023-01-03T22:14:52.609Z,64.82
2023-01-03T22:17:22.368Z,64.34
2023-01-03T22:19:50.833Z,64.31
2023-01-03T22:22:19.211Z,64.82
2023-01-03T22:24:47.789Z,64.29
2023-01-03T22:27:17.979Z,64.56
2023-01-03T22:29:46.309Z,64.30
2023-01-03T22:32:14.770Z,64.13
2023-01-03T22:34:44.806Z,64.44
2023-01-03T22:37:13.158Z,63.99
2023-01-03T22:39:41.475Z,64.30
2023-01-03T22:42:13.307Z,63.87
2023-01-03T22:44:44.430Z,64.23
2023-01-03T22:47:12.947Z,63.50
2023-01-03T22:49:41.274Z,63.78
2023-01-03T22:52:11.164Z,63.90
2023-01-03T22:54:39.513Z,63.22
2023-01-03T22:57:07.877Z,63.08
2023-01-03T22:59:36.467Z,63.64
2023-01-03T23:02:05.034Z,63.45
2023-01-03T23:04:34.030Z,63.54
2023-01-03T23:07:02.652Z,63.18
2023-01-03T23:09:32.418Z,63.67
2023-01-03T23:12:18.311Z,63.44
2023-01-03T23:14:46.929Z,64.34
2023-01-03T23:17:32.585Z,64.65
2023-01-03T23:20:01.357Z,64.49
2023-01-03T23:22:29.652Z,64.44
2023-01-03T23:24:59.419Z,64.46
2023-01-03T23:27:28.523Z,64.44
2023-01-03T23:29:57.134Z,64.45
2023-01-03T23:32:25.473Z,64.77
2023-01-03T23:34:53.898Z,64.09
2023-01-03T23:37:22.280Z,64.33
2023-01-03T23:39:50.639Z,64.19
2023-01-03T23:42:20.326Z,64.57
2023-01-03T23:44:48.830Z,65.25
2023-01-03T23:47:17.909Z,65.24
2023-01-03T23:49:46.234Z,64.83
2023-01-03T23:52:14.665Z,64.93
2023-01-03T23:54:43.197Z,65.43
2023-01-03T23:57:11.650Z,65.49
2023-01-03T23:59:42.149Z,65.40
